sensor_id;sensor_type;location;lat;lon;timestamp;P1;durP1;ratioP1;P2;durP2;ratioP2
54977;SDS011;40873;47.522;19.106;2022-12-11T00:00:51;12.13;;;6.60;;
54977;SDS011;40873;47.522;19.106;2022-12-11T00:03:39;11.40;;;5.80;;
54977;SDS011;40873;47.522;19.106;2022-12-11T00:06:07;14.52;;;6.15;;
54977;SDS011;40873;47.522;19.106;2022-12-11T00:08:36;13.15;;;5.90;;
54977;SDS011;40873;47.522;19.106;2022-12-11T00:11:04;16.00;;;7.60;;
54977;SDS011;40873;47.522;19.106;2022-12-11T00:13:33;14.82;;;6.88;;
54977;SDS011;40873;47.522;19.106;2022-12-11T00:16:01;16.48;;;7.53;;
54977;SDS011;40873;47.522;19.106;2022-12-11T00:18:28;11.75;;;5.57;;
54977;SDS011;40873;47.522;19.106;2022-12-11T00:20:58;15.43;;;7.53;;
54977;SDS011;40873;47.522;19.106;2022-12-11T00:23:27;10.57;;;5.90;;
54977;SDS011;40873;47.522;19.106;2022-12-11T00:25:54;15.02;;;7.72;;
54977;SDS011;40873;47.522;19.106;2022-12-11T00:28:21;15.88;;;6.88;;
54977;SDS011;40873;47.522;19.106;2022-12-11T00:30:48;17.48;;;8.55;;
54977;SDS011;40873;47.522;19.106;2022-12-11T00:33:15;16.17;;;7.25;;
54977;SDS011;40873;47.522;19.106;2022-12-11T00:35:43;15.88;;;8.50;;
54977;SDS011;40873;47.522;19.106;2022-12-11T00:38:13;17.10;;;7.82;;
54977;SDS011;40873;47.522;19.106;2022-12-11T00:40:42;17.50;;;8.57;;
54977;SDS011;40873;47.522;19.106;2022-12-11T00:43:09;17.73;;;7.15;;
54977;SDS011;40873;47.522;19.106;2022-12-11T00:45:37;17.80;;;7.45;;
54977;SDS011;40873;47.522;19.106;2022-12-11T00:48:06;16.55;;;7.60;;
54977;SDS011;40873;47.522;19.106;2022-12-11T00:50:34;13.98;;;7.07;;
54977;SDS011;40873;47.522;19.106;2022-12-11T00:53:02;12.23;;;7.47;;
54977;SDS011;40873;47.522;19.106;2022-12-11T00:55:30;14.68;;;7.35;;
54977;SDS011;40873;47.522;19.106;2022-12-11T00:58:01;14.63;;;6.85;;
54977;SDS011;40873;47.522;19.106;2022-12-11T01:00:28;14.00;;;7.00;;
54977;SDS011;40873;47.522;19.106;2022-12-11T01:02:55;17.27;;;7.90;;
54977;SDS011;40873;47.522;19.106;2022-12-11T01:05:22;16.90;;;7.38;;
54977;SDS011;40873;47.522;19.106;2022-12-11T01:07:49;17.55;;;7.57;;
54977;SDS011;40873;47.522;19.106;2022-12-11T01:10:16;23.13;;;7.57;;
54977;SDS011;40873;47.522;19.106;2022-12-11T01:12:54;12.13;;;6.68;;
54977;SDS011;40873;47.522;19.106;2022-12-11T01:15:23;12.18;;;7.15;;
54977;SDS011;40873;47.522;19.106;2022-12-11T01:17:55;17.02;;;8.00;;
54977;SDS011;40873;47.522;19.106;2022-12-11T01:20:22;16.50;;;6.63;;
54977;SDS011;40873;47.522;19.106;2022-12-11T01:22:51;18.20;;;7.22;;
54977;SDS011;40873;47.522;19.106;2022-12-11T01:25:20;10.75;;;5.50;;
54977;SDS011;40873;47.522;19.106;2022-12-11T01:27:51;13.27;;;6.20;;
54977;SDS011;40873;47.522;19.106;2022-12-11T01:30:19;15.48;;;7.20;;
54977;SDS011;40873;47.522;19.106;2022-12-11T01:32:48;17.20;;;6.53;;
54977;SDS011;40873;47.522;19.106;2022-12-11T01:35:15;14.48;;;7.55;;
54977;SDS011;40873;47.522;19.106;2022-12-11T01:37:43;14.15;;;6.97;;
54977;SDS011;40873;47.522;19.106;2022-12-11T01:40:12;13.30;;;6.35;;
54977;SDS011;40873;47.522;19.106;2022-12-11T01:42:41;11.45;;;5.82;;
54977;SDS011;40873;47.522;19.106;2022-12-11T01:45:28;11.55;;;5.53;;
54977;SDS011;40873;47.522;19.106;2022-12-11T01:48:10;15.43;;;6.43;;
54977;SDS011;40873;47.522;19.106;2022-12-11T01:50:50;13.98;;;6.13;;
54977;SDS011;40873;47.522;19.106;2022-12-11T01:53:22;13.23;;;6.53;;
54977;SDS011;40873;47.522;19.106;2022-12-11T01:55:55;12.02;;;5.35;;
54977;SDS011;40873;47.522;19.106;2022-12-11T01:58:25;12.32;;;4.90;;
54977;SDS011;40873;47.522;19.106;2022-12-11T02:00:59;16.52;;;5.65;;
54977;SDS011;40873;47.522;19.106;2022-12-11T02:03:28;12.23;;;5.50;;
54977;SDS011;40873;47.522;19.106;2022-12-11T02:05:58;11.63;;;6.13;;
54977;SDS011;40873;47.522;19.106;2022-12-11T02:08:25;17.05;;;6.57;;
54977;SDS011;40873;47.522;19.106;2022-12-11T02:13:26;10.07;;;5.78;;
54977;SDS011;40873;47.522;19.106;2022-12-11T02:18:47;8.43;;;4.53;;
54977;SDS011;40873;47.522;19.106;2022-12-11T02:21:32;11.57;;;5.63;;
54977;SDS011;40873;47.522;19.106;2022-12-11T02:29:45;12.05;;;5.07;;
54977;SDS011;40873;47.522;19.106;2022-12-11T02:32:38;9.32;;;4.25;;
54977;SDS011;40873;47.522;19.106;2022-12-11T02:35:08;9.80;;;5.10;;
54977;SDS011;40873;47.522;19.106;2022-12-11T02:37:41;11.50;;;5.57;;
54977;SDS011;40873;47.522;19.106;2022-12-11T02:40:11;10.20;;;4.68;;
54977;SDS011;40873;47.522;19.106;2022-12-11T02:42:42;10.13;;;5.20;;
54977;SDS011;40873;47.522;19.106;2022-12-11T02:45:13;8.07;;;4.35;;
54977;SDS011;40873;47.522;19.106;2022-12-11T02:47:42;6.88;;;3.90;;
54977;SDS011;40873;47.522;19.106;2022-12-11T02:50:12;8.73;;;4.15;;
54977;SDS011;40873;47.522;19.106;2022-12-11T02:52:43;7.22;;;3.85;;
54977;SDS011;40873;47.522;19.106;2022-12-11T02:55:14;9.52;;;4.15;;
54977;SDS011;40873;47.522;19.106;2022-12-11T02:57:49;7.50;;;3.70;;
54977;SDS011;40873;47.522;19.106;2022-12-11T03:00:22;11.80;;;4.20;;
54977;SDS011;40873;47.522;19.106;2022-12-11T03:02:48;7.43;;;3.25;;
54977;SDS011;40873;47.522;19.106;2022-12-11T03:05:16;7.68;;;4.00;;
54977;SDS011;40873;47.522;19.106;2022-12-11T03:07:43;7.72;;;4.07;;
54977;SDS011;40873;47.522;19.106;2022-12-11T03:10:12;9.02;;;4.25;;
54977;SDS011;40873;47.522;19.106;2022-12-11T03:12:41;6.40;;;3.17;;
54977;SDS011;40873;47.522;19.106;2022-12-11T03:15:16;7.15;;;3.08;;
54977;SDS011;40873;47.522;19.106;2022-12-11T03:23:21;7.38;;;3.00;;
54977;SDS011;40873;47.522;19.106;2022-12-11T03:25:56;5.22;;;2.17;;
54977;SDS011;40873;47.522;19.106;2022-12-11T03:28:31;6.10;;;3.63;;
54977;SDS011;40873;47.522;19.106;2022-12-11T03:31:17;5.75;;;3.25;;
54977;SDS011;40873;47.522;19.106;2022-12-11T03:33:52;4.95;;;2.42;;
54977;SDS011;40873;47.522;19.106;2022-12-11T03:36:25;5.03;;;2.35;;
54977;SDS011;40873;47.522;19.106;2022-12-11T03:39:00;5.82;;;2.42;;
54977;SDS011;40873;47.522;19.106;2022-12-11T03:41:33;5.47;;;2.00;;
54977;SDS011;40873;47.522;19.106;2022-12-11T03:44:02;5.15;;;2.22;;
54977;SDS011;40873;47.522;19.106;2022-12-11T03:46:30;3.90;;;1.92;;
54977;SDS011;40873;47.522;19.106;2022-12-11T03:49:04;3.67;;;1.60;;
54977;SDS011;40873;47.522;19.106;2022-12-11T03:51:37;4.15;;;2.22;;
54977;SDS011;40873;47.522;19.106;2022-12-11T03:54:05;4.97;;;2.40;;
54977;SDS011;40873;47.522;19.106;2022-12-11T03:56:33;4.35;;;2.25;;
54977;SDS011;40873;47.522;19.106;2022-12-11T03:59:03;5.80;;;2.15;;
54977;SDS011;40873;47.522;19.106;2022-12-11T04:01:30;3.63;;;1.60;;
54977;SDS011;40873;47.522;19.106;2022-12-11T04:04:00;6.18;;;2.03;;
54977;SDS011;40873;47.522;19.106;2022-12-11T04:06:27;3.75;;;1.77;;
54977;SDS011;40873;47.522;19.106;2022-12-11T04:08:54;3.50;;;1.83;;
54977;SDS011;40873;47.522;19.106;2022-12-11T04:11:21;4.78;;;1.95;;
54977;SDS011;40873;47.522;19.106;2022-12-11T04:14:09;2.30;;;1.40;;
54977;SDS011;40873;47.522;19.106;2022-12-11T04:16:58;3.97;;;1.67;;
54977;SDS011;40873;47.522;19.106;2022-12-11T04:19:25;4.90;;;2.22;;
54977;SDS011;40873;47.522;19.106;2022-12-11T04:22:12;5.65;;;1.98;;
54977;SDS011;40873;47.522;19.106;2022-12-11T04:24:59;2.25;;;1.42;;
54977;SDS011;40873;47.522;19.106;2022-12-11T04:27:27;4.55;;;1.85;;
54977;SDS011;40873;47.522;19.106;2022-12-11T04:30:14;3.22;;;1.70;;
54977;SDS011;40873;47.522;19.106;2022-12-11T04:32:46;3.63;;;2.00;;
54977;SDS011;40873;47.522;19.106;2022-12-11T04:35:13;5.30;;;2.28;;
54977;SDS011;40873;47.522;19.106;2022-12-11T04:37:40;5.47;;;2.47;;
54977;SDS011;40873;47.522;19.106;2022-12-11T04:40:08;4.97;;;2.65;;
54977;SDS011;40873;47.522;19.106;2022-12-11T04:42:38;2.25;;;1.52;;
54977;SDS011;40873;47.522;19.106;2022-12-11T04:45:08;5.07;;;3.05;;
54977;SDS011;40873;47.522;19.106;2022-12-11T04:47:39;6.65;;;2.72;;
54977;SDS011;40873;47.522;19.106;2022-12-11T04:50:07;5.38;;;2.80;;
54977;SDS011;40873;47.522;19.106;2022-12-11T04:52:36;6.78;;;3.13;;
54977;SDS011;40873;47.522;19.106;2022-12-11T04:55:04;6.65;;;3.63;;
54977;SDS011;40873;47.522;19.106;2022-12-11T04:57:31;9.93;;;3.17;;
54977;SDS011;40873;47.522;19.106;2022-12-11T04:59:58;7.05;;;2.63;;
54977;SDS011;40873;47.522;19.106;2022-12-11T05:02:26;7.20;;;2.92;;
54977;SDS011;40873;47.522;19.106;2022-12-11T05:04:53;9.73;;;3.58;;
54977;SDS011;40873;47.522;19.106;2022-12-11T05:07:20;7.40;;;3.55;;
54977;SDS011;40873;47.522;19.106;2022-12-11T05:09:46;9.48;;;3.83;;
54977;SDS011;40873;47.522;19.106;2022-12-11T05:12:14;7.95;;;3.85;;
54977;SDS011;40873;47.522;19.106;2022-12-11T05:14:43;7.53;;;3.22;;
54977;SDS011;40873;47.522;19.106;2022-12-11T05:17:10;7.78;;;3.85;;
54977;SDS011;40873;47.522;19.106;2022-12-11T05:19:37;7.55;;;3.20;;
54977;SDS011;40873;47.522;19.106;2022-12-11T05:22:04;10.18;;;4.22;;
54977;SDS011;40873;47.522;19.106;2022-12-11T05:24:31;9.88;;;4.22;;
54977;SDS011;40873;47.522;19.106;2022-12-11T05:26:58;6.20;;;3.35;;
54977;SDS011;40873;47.522;19.106;2022-12-11T05:29:25;6.20;;;3.53;;
54977;SDS011;40873;47.522;19.106;2022-12-11T05:31:52;9.75;;;4.10;;
54977;SDS011;40873;47.522;19.106;2022-12-11T05:34:18;13.55;;;4.03;;
54977;SDS011;40873;47.522;19.106;2022-12-11T05:36:46;10.00;;;4.28;;
54977;SDS011;40873;47.522;19.106;2022-12-11T05:39:12;5.57;;;3.33;;
54977;SDS011;40873;47.522;19.106;2022-12-11T05:41:39;6.18;;;3.00;;
54977;SDS011;40873;47.522;19.106;2022-12-11T05:44:08;9.48;;;4.22;;
54977;SDS011;40873;47.522;19.106;2022-12-11T05:46:37;7.75;;;3.55;;
54977;SDS011;40873;47.522;19.106;2022-12-11T05:49:05;7.93;;;3.65;;
54977;SDS011;40873;47.522;19.106;2022-12-11T05:51:32;9.68;;;4.38;;
54977;SDS011;40873;47.522;19.106;2022-12-11T05:54:00;8.35;;;3.58;;
54977;SDS011;40873;47.522;19.106;2022-12-11T05:56:29;7.20;;;3.50;;
54977;SDS011;40873;47.522;19.106;2022-12-11T05:58:58;6.93;;;3.65;;
54977;SDS011;40873;47.522;19.106;2022-12-11T06:01:28;5.85;;;3.05;;
54977;SDS011;40873;47.522;19.106;2022-12-11T06:04:09;7.35;;;3.35;;
54977;SDS011;40873;47.522;19.106;2022-12-11T06:06:37;6.70;;;2.60;;
54977;SDS011;40873;47.522;19.106;2022-12-11T06:09:05;5.88;;;3.22;;
54977;SDS011;40873;47.522;19.106;2022-12-11T06:11:33;7.45;;;3.88;;
54977;SDS011;40873;47.522;19.106;2022-12-11T06:14:01;9.07;;;3.03;;
54977;SDS011;40873;47.522;19.106;2022-12-11T06:16:29;7.85;;;3.17;;
54977;SDS011;40873;47.522;19.106;2022-12-11T06:18:56;6.47;;;3.40;;
54977;SDS011;40873;47.522;19.106;2022-12-11T06:21:25;6.80;;;2.58;;
54977;SDS011;40873;47.522;19.106;2022-12-11T06:23:55;6.65;;;3.72;;
54977;SDS011;40873;47.522;19.106;2022-12-11T06:26:23;7.90;;;4.05;;
54977;SDS011;40873;47.522;19.106;2022-12-11T06:28:51;4.03;;;2.50;;
54977;SDS011;40873;47.522;19.106;2022-12-11T06:31:19;5.80;;;2.75;;
54977;SDS011;40873;47.522;19.106;2022-12-11T06:33:46;7.10;;;3.60;;
54977;SDS011;40873;47.522;19.106;2022-12-11T06:36:14;9.73;;;3.50;;
54977;SDS011;40873;47.522;19.106;2022-12-11T06:38:43;4.53;;;2.45;;
54977;SDS011;40873;47.522;19.106;2022-12-11T06:41:10;6.55;;;2.92;;
54977;SDS011;40873;47.522;19.106;2022-12-11T06:43:38;8.43;;;3.97;;
54977;SDS011;40873;47.522;19.106;2022-12-11T06:46:07;6.88;;;3.70;;
54977;SDS011;40873;47.522;19.106;2022-12-11T06:48:35;5.70;;;2.67;;
54977;SDS011;40873;47.522;19.106;2022-12-11T06:51:10;7.13;;;3.35;;
54977;SDS011;40873;47.522;19.106;2022-12-11T06:53:39;9.65;;;4.15;;
54977;SDS011;40873;47.522;19.106;2022-12-11T06:56:08;8.95;;;4.57;;
54977;SDS011;40873;47.522;19.106;2022-12-11T06:58:38;11.02;;;5.10;;
54977;SDS011;40873;47.522;19.106;2022-12-11T07:01:13;8.82;;;4.28;;
54977;SDS011;40873;47.522;19.106;2022-12-11T07:03:48;5.18;;;2.80;;
54977;SDS011;40873;47.522;19.106;2022-12-11T07:06:15;8.10;;;4.03;;
54977;SDS011;40873;47.522;19.106;2022-12-11T07:08:42;8.52;;;3.92;;
54977;SDS011;40873;47.522;19.106;2022-12-11T07:11:11;7.63;;;4.55;;
54977;SDS011;40873;47.522;19.106;2022-12-11T07:13:39;11.02;;;4.22;;
54977;SDS011;40873;47.522;19.106;2022-12-11T07:16:10;7.57;;;3.63;;
54977;SDS011;40873;47.522;19.106;2022-12-11T07:18:42;10.65;;;4.10;;
54977;SDS011;40873;47.522;19.106;2022-12-11T07:21:12;9.27;;;4.53;;
54977;SDS011;40873;47.522;19.106;2022-12-11T07:23:39;8.95;;;3.28;;
54977;SDS011;40873;47.522;19.106;2022-12-11T07:26:08;7.22;;;3.28;;
54977;SDS011;40873;47.522;19.106;2022-12-11T07:28:37;11.68;;;4.35;;
54977;SDS011;40873;47.522;19.106;2022-12-11T07:31:05;7.70;;;3.95;;
54977;SDS011;40873;47.522;19.106;2022-12-11T07:33:33;10.55;;;3.80;;
54977;SDS011;40873;47.522;19.106;2022-12-11T07:36:01;11.50;;;4.75;;
54977;SDS011;40873;47.522;19.106;2022-12-11T07:38:30;9.10;;;3.92;;
54977;SDS011;40873;47.522;19.106;2022-12-11T07:41:04;9.13;;;4.28;;
54977;SDS011;40873;47.522;19.106;2022-12-11T07:43:33;8.77;;;3.95;;
54977;SDS011;40873;47.522;19.106;2022-12-11T07:46:05;10.40;;;4.15;;
54977;SDS011;40873;47.522;19.106;2022-12-11T07:48:36;7.20;;;3.35;;
54977;SDS011;40873;47.522;19.106;2022-12-11T07:53:34;6.95;;;3.20;;
54977;SDS011;40873;47.522;19.106;2022-12-11T07:56:02;5.60;;;3.50;;
54977;SDS011;40873;47.522;19.106;2022-12-11T07:58:29;5.03;;;2.47;;
54977;SDS011;40873;47.522;19.106;2022-12-11T08:00:56;11.05;;;4.70;;
54977;SDS011;40873;47.522;19.106;2022-12-11T08:03:23;6.05;;;2.47;;
54977;SDS011;40873;47.522;19.106;2022-12-11T08:05:51;6.90;;;3.10;;
54977;SDS011;40873;47.522;19.106;2022-12-11T08:08:18;9.15;;;4.45;;
54977;SDS011;40873;47.522;19.106;2022-12-11T08:10:46;8.02;;;3.45;;
54977;SDS011;40873;47.522;19.106;2022-12-11T08:13:12;11.93;;;3.17;;
54977;SDS011;40873;47.522;19.106;2022-12-11T08:15:40;7.43;;;3.20;;
54977;SDS011;40873;47.522;19.106;2022-12-11T08:18:07;5.47;;;3.05;;
54977;SDS011;40873;47.522;19.106;2022-12-11T08:20:36;7.45;;;3.78;;
54977;SDS011;40873;47.522;19.106;2022-12-11T08:23:03;9.75;;;3.63;;
54977;SDS011;40873;47.522;19.106;2022-12-11T08:25:30;9.15;;;3.13;;
54977;SDS011;40873;47.522;19.106;2022-12-11T08:27:57;6.63;;;2.88;;
54977;SDS011;40873;47.522;19.106;2022-12-11T08:30:24;7.85;;;3.30;;
54977;SDS011;40873;47.522;19.106;2022-12-11T08:32:51;8.18;;;3.58;;
54977;SDS011;40873;47.522;19.106;2022-12-11T08:35:18;8.88;;;3.53;;
54977;SDS011;40873;47.522;19.106;2022-12-11T08:37:45;7.32;;;2.63;;
54977;SDS011;40873;47.522;19.106;2022-12-11T08:40:12;5.80;;;2.38;;
54977;SDS011;40873;47.522;19.106;2022-12-11T08:42:39;7.97;;;3.85;;
54977;SDS011;40873;47.522;19.106;2022-12-11T08:45:06;7.38;;;2.47;;
54977;SDS011;40873;47.522;19.106;2022-12-11T08:47:35;4.88;;;3.13;;
54977;SDS011;40873;47.522;19.106;2022-12-11T08:50:02;5.70;;;2.45;;
54977;SDS011;40873;47.522;19.106;2022-12-11T08:52:29;5.07;;;3.42;;
54977;SDS011;40873;47.522;19.106;2022-12-11T08:54:57;6.75;;;3.08;;
54977;SDS011;40873;47.522;19.106;2022-12-11T08:57:23;7.80;;;2.65;;
54977;SDS011;40873;47.522;19.106;2022-12-11T08:59:50;5.63;;;2.70;;
54977;SDS011;40873;47.522;19.106;2022-12-11T09:02:17;5.07;;;2.55;;
54977;SDS011;40873;47.522;19.106;2022-12-11T09:04:44;6.72;;;2.33;;
54977;SDS011;40873;47.522;19.106;2022-12-11T09:07:11;5.32;;;1.95;;
54977;SDS011;40873;47.522;19.106;2022-12-11T09:09:38;5.95;;;3.15;;
54977;SDS011;40873;47.522;19.106;2022-12-11T09:12:05;4.85;;;2.03;;
54977;SDS011;40873;47.522;19.106;2022-12-11T09:14:32;8.20;;;2.85;;
54977;SDS011;40873;47.522;19.106;2022-12-11T09:16:59;4.90;;;2.30;;
54977;SDS011;40873;47.522;19.106;2022-12-11T09:19:26;4.13;;;2.15;;
54977;SDS011;40873;47.522;19.106;2022-12-11T09:21:58;7.93;;;2.92;;
54977;SDS011;40873;47.522;19.106;2022-12-11T09:24:24;5.38;;;2.25;;
54977;SDS011;40873;47.522;19.106;2022-12-11T09:26:51;5.25;;;2.70;;
54977;SDS011;40873;47.522;19.106;2022-12-11T09:29:20;7.75;;;2.70;;
54977;SDS011;40873;47.522;19.106;2022-12-11T09:31:47;5.80;;;3.03;;
54977;SDS011;40873;47.522;19.106;2022-12-11T09:34:15;5.75;;;2.15;;
54977;SDS011;40873;47.522;19.106;2022-12-11T09:36:41;9.73;;;2.60;;
54977;SDS011;40873;47.522;19.106;2022-12-11T09:39:10;6.53;;;2.72;;
54977;SDS011;40873;47.522;19.106;2022-12-11T09:41:43;5.63;;;2.47;;
54977;SDS011;40873;47.522;19.106;2022-12-11T09:47:59;6.57;;;2.78;;
54977;SDS011;40873;47.522;19.106;2022-12-11T09:55:12;6.55;;;1.77;;
54977;SDS011;40873;47.522;19.106;2022-12-11T10:06:14;6.05;;;1.90;;
54977;SDS011;40873;47.522;19.106;2022-12-11T10:09:02;4.75;;;1.67;;
54977;SDS011;40873;47.522;19.106;2022-12-11T10:17:30;4.53;;;1.90;;
54977;SDS011;40873;47.522;19.106;2022-12-11T10:20:21;4.78;;;1.98;;
54977;SDS011;40873;47.522;19.106;2022-12-11T10:23:02;3.67;;;1.50;;
54977;SDS011;40873;47.522;19.106;2022-12-11T10:25:34;6.00;;;2.28;;
54977;SDS011;40873;47.522;19.106;2022-12-11T10:28:19;4.07;;;1.55;;
54977;SDS011;40873;47.522;19.106;2022-12-11T10:30:47;3.95;;;1.98;;
54977;SDS011;40873;47.522;19.106;2022-12-11T10:36:17;3.25;;;2.10;;
54977;SDS011;40873;47.522;19.106;2022-12-11T10:38:51;6.18;;;3.15;;
54977;SDS011;40873;47.522;19.106;2022-12-11T10:41:40;4.05;;;1.67;;
54977;SDS011;40873;47.522;19.106;2022-12-11T10:44:18;4.40;;;2.53;;
54977;SDS011;40873;47.522;19.106;2022-12-11T10:49:50;5.00;;;2.17;;
54977;SDS011;40873;47.522;19.106;2022-12-11T10:52:32;6.80;;;2.67;;
54977;SDS011;40873;47.522;19.106;2022-12-11T10:55:14;4.60;;;2.20;;
54977;SDS011;40873;47.522;19.106;2022-12-11T10:57:52;5.18;;;2.60;;
54977;SDS011;40873;47.522;19.106;2022-12-11T11:00:28;2.92;;;1.85;;
54977;SDS011;40873;47.522;19.106;2022-12-11T11:02:58;5.57;;;2.80;;
54977;SDS011;40873;47.522;19.106;2022-12-11T11:05:31;5.43;;;2.28;;
54977;SDS011;40873;47.522;19.106;2022-12-11T11:08:16;5.60;;;2.60;;
54977;SDS011;40873;47.522;19.106;2022-12-11T11:10:49;7.35;;;2.45;;
54977;SDS011;40873;47.522;19.106;2022-12-11T11:13:24;5.25;;;2.80;;
54977;SDS011;40873;47.522;19.106;2022-12-11T11:16:06;7.07;;;2.55;;
54977;SDS011;40873;47.522;19.106;2022-12-11T11:18:37;4.90;;;2.17;;
54977;SDS011;40873;47.522;19.106;2022-12-11T11:21:14;6.45;;;2.67;;
54977;SDS011;40873;47.522;19.106;2022-12-11T11:23:42;6.20;;;2.40;;
54977;SDS011;40873;47.522;19.106;2022-12-11T11:26:16;4.90;;;2.50;;
54977;SDS011;40873;47.522;19.106;2022-12-11T11:28:51;5.32;;;2.45;;
54977;SDS011;40873;47.522;19.106;2022-12-11T11:31:31;7.32;;;2.65;;
54977;SDS011;40873;47.522;19.106;2022-12-11T11:34:03;5.13;;;2.22;;
54977;SDS011;40873;47.522;19.106;2022-12-11T11:36:35;7.18;;;2.42;;
54977;SDS011;40873;47.522;19.106;2022-12-11T11:42:36;8.80;;;3.97;;
54977;SDS011;40873;47.522;19.106;2022-12-11T11:45:23;5.60;;;3.00;;
54977;SDS011;40873;47.522;19.106;2022-12-11T11:50:49;6.88;;;3.22;;
54977;SDS011;40873;47.522;19.106;2022-12-11T11:58:56;4.65;;;2.85;;
54977;SDS011;40873;47.522;19.106;2022-12-11T12:01:36;5.53;;;2.45;;
54977;SDS011;40873;47.522;19.106;2022-12-11T12:04:06;5.55;;;2.70;;
54977;SDS011;40873;47.522;19.106;2022-12-11T12:06:47;8.43;;;3.00;;
54977;SDS011;40873;47.522;19.106;2022-12-11T12:20:53;6.17;;;2.67;;
54977;SDS011;40873;47.522;19.106;2022-12-11T12:23:50;6.18;;;2.95;;
54977;SDS011;40873;47.522;19.106;2022-12-11T12:37:12;6.65;;;3.70;;
54977;SDS011;40873;47.522;19.106;2022-12-11T12:48:23;5.50;;;2.42;;
54977;SDS011;40873;47.522;19.106;2022-12-11T12:50:51;7.10;;;2.55;;
54977;SDS011;40873;47.522;19.106;2022-12-11T12:53:22;3.92;;;2.63;;
54977;SDS011;40873;47.522;19.106;2022-12-11T12:55:53;5.10;;;2.40;;
54977;SDS011;40873;47.522;19.106;2022-12-11T12:58:23;6.15;;;2.90;;
54977;SDS011;40873;47.522;19.106;2022-12-11T13:01:16;7.32;;;3.15;;
54977;SDS011;40873;47.522;19.106;2022-12-11T13:03:50;7.07;;;3.00;;
54977;SDS011;40873;47.522;19.106;2022-12-11T13:11:43;6.55;;;2.92;;
54977;SDS011;40873;47.522;19.106;2022-12-11T13:16:42;5.20;;;2.63;;
54977;SDS011;40873;47.522;19.106;2022-12-11T13:24:32;6.82;;;2.63;;
54977;SDS011;40873;47.522;19.106;2022-12-11T13:27:09;5.90;;;2.85;;
54977;SDS011;40873;47.522;19.106;2022-12-11T13:29:47;8.52;;;4.03;;
54977;SDS011;40873;47.522;19.106;2022-12-11T13:34:50;5.90;;;3.30;;
54977;SDS011;40873;47.522;19.106;2022-12-11T13:37:37;9.65;;;3.90;;
54977;SDS011;40873;47.522;19.106;2022-12-11T13:40:41;5.20;;;2.50;;
54977;SDS011;40873;47.522;19.106;2022-12-11T13:43:19;6.45;;;3.38;;
54977;SDS011;40873;47.522;19.106;2022-12-11T13:45:52;10.40;;;4.13;;
54977;SDS011;40873;47.522;19.106;2022-12-11T13:48:23;8.40;;;3.88;;
54977;SDS011;40873;47.522;19.106;2022-12-11T13:50:54;7.50;;;2.92;;
54977;SDS011;40873;47.522;19.106;2022-12-11T13:53:22;7.65;;;3.22;;
54977;SDS011;40873;47.522;19.106;2022-12-11T13:55:59;9.98;;;4.28;;
54977;SDS011;40873;47.522;19.106;2022-12-11T13:58:29;8.80;;;3.83;;
54977;SDS011;40873;47.522;19.106;2022-12-11T14:03:33;9.50;;;3.50;;
54977;SDS011;40873;47.522;19.106;2022-12-11T14:06:01;9.25;;;3.90;;
54977;SDS011;40873;47.522;19.106;2022-12-11T14:08:36;8.20;;;3.45;;
54977;SDS011;40873;47.522;19.106;2022-12-11T14:11:05;9.77;;;3.83;;
54977;SDS011;40873;47.522;19.106;2022-12-11T14:13:37;8.57;;;4.57;;
54977;SDS011;40873;47.522;19.106;2022-12-11T14:16:07;9.02;;;4.20;;
54977;SDS011;40873;47.522;19.106;2022-12-11T14:18:34;6.55;;;3.40;;
54977;SDS011;40873;47.522;19.106;2022-12-11T14:21:03;9.48;;;4.05;;
54977;SDS011;40873;47.522;19.106;2022-12-11T14:23:32;9.48;;;4.13;;
54977;SDS011;40873;47.522;19.106;2022-12-11T14:28:34;9.70;;;3.88;;
54977;SDS011;40873;47.522;19.106;2022-12-11T14:31:03;9.02;;;4.38;;
54977;SDS011;40873;47.522;19.106;2022-12-11T14:33:32;11.38;;;4.40;;
54977;SDS011;40873;47.522;19.106;2022-12-11T14:36:03;11.35;;;4.95;;
54977;SDS011;40873;47.522;19.106;2022-12-11T14:41:07;8.43;;;3.78;;
54977;SDS011;40873;47.522;19.106;2022-12-11T14:43:42;13.57;;;3.90;;
54977;SDS011;40873;47.522;19.106;2022-12-11T14:46:24;9.88;;;4.28;;
54977;SDS011;40873;47.522;19.106;2022-12-11T14:49:06;7.15;;;3.38;;
54977;SDS011;40873;47.522;19.106;2022-12-11T14:51:43;11.57;;;4.75;;
54977;SDS011;40873;47.522;19.106;2022-12-11T14:54:25;9.65;;;4.15;;
54977;SDS011;40873;47.522;19.106;2022-12-11T14:56:57;6.13;;;3.45;;
54977;SDS011;40873;47.522;19.106;2022-12-11T14:59:26;7.50;;;2.88;;
54977;SDS011;40873;47.522;19.106;2022-12-11T15:02:03;10.40;;;5.38;;
54977;SDS011;40873;47.522;19.106;2022-12-11T15:04:58;13.75;;;4.50;;
54977;SDS011;40873;47.522;19.106;2022-12-11T15:10:27;11.98;;;4.40;;
54977;SDS011;40873;47.522;19.106;2022-12-11T15:13:21;9.73;;;4.50;;
54977;SDS011;40873;47.522;19.106;2022-12-11T15:15:49;7.15;;;4.03;;
54977;SDS011;40873;47.522;19.106;2022-12-11T15:18:19;14.50;;;5.05;;
54977;SDS011;40873;47.522;19.106;2022-12-11T15:20:54;8.23;;;4.90;;
54977;SDS011;40873;47.522;19.106;2022-12-11T15:23:25;9.40;;;4.30;;
54977;SDS011;40873;47.522;19.106;2022-12-11T15:25:56;7.85;;;3.53;;
54977;SDS011;40873;47.522;19.106;2022-12-11T15:28:35;10.68;;;4.25;;
54977;SDS011;40873;47.522;19.106;2022-12-11T15:31:19;10.85;;;5.22;;
54977;SDS011;40873;47.522;19.106;2022-12-11T15:33:47;12.05;;;5.68;;
54977;SDS011;40873;47.522;19.106;2022-12-11T15:36:21;14.15;;;4.80;;
54977;SDS011;40873;47.522;19.106;2022-12-11T15:38:50;13.02;;;5.55;;
54977;SDS011;40873;47.522;19.106;2022-12-11T15:41:20;9.60;;;4.80;;
54977;SDS011;40873;47.522;19.106;2022-12-11T15:43:52;9.52;;;4.45;;
54977;SDS011;40873;47.522;19.106;2022-12-11T15:46:24;10.98;;;4.10;;
54977;SDS011;40873;47.522;19.106;2022-12-11T15:48:54;14.65;;;6.40;;
54977;SDS011;40873;47.522;19.106;2022-12-11T15:51:25;13.25;;;5.38;;
54977;SDS011;40873;47.522;19.106;2022-12-11T15:53:53;10.15;;;4.53;;
54977;SDS011;40873;47.522;19.106;2022-12-11T15:56:23;11.60;;;5.05;;
54977;SDS011;40873;47.522;19.106;2022-12-11T15:58:50;7.82;;;3.75;;
54977;SDS011;40873;47.522;19.106;2022-12-11T16:01:19;14.10;;;5.35;;
54977;SDS011;40873;47.522;19.106;2022-12-11T16:03:48;10.30;;;4.55;;
54977;SDS011;40873;47.522;19.106;2022-12-11T16:06:18;10.15;;;4.68;;
54977;SDS011;40873;47.522;19.106;2022-12-11T16:08:46;11.38;;;4.63;;
54977;SDS011;40873;47.522;19.106;2022-12-11T16:11:13;9.75;;;3.60;;
54977;SDS011;40873;47.522;19.106;2022-12-11T16:13:41;11.15;;;4.35;;
54977;SDS011;40873;47.522;19.106;2022-12-11T16:16:08;10.80;;;5.00;;
54977;SDS011;40873;47.522;19.106;2022-12-11T16:18:35;9.07;;;4.70;;
54977;SDS011;40873;47.522;19.106;2022-12-11T16:21:03;9.15;;;4.70;;
54977;SDS011;40873;47.522;19.106;2022-12-11T16:23:31;12.60;;;5.20;;
54977;SDS011;40873;47.522;19.106;2022-12-11T16:25:58;12.23;;;5.40;;
54977;SDS011;40873;47.522;19.106;2022-12-11T16:28:33;10.65;;;4.90;;
54977;SDS011;40873;47.522;19.106;2022-12-11T16:31:11;8.82;;;4.47;;
54977;SDS011;40873;47.522;19.106;2022-12-11T16:33:40;12.02;;;5.72;;
54977;SDS011;40873;47.522;19.106;2022-12-11T16:36:14;11.52;;;4.50;;
54977;SDS011;40873;47.522;19.106;2022-12-11T16:38:48;11.77;;;5.72;;
54977;SDS011;40873;47.522;19.106;2022-12-11T16:41:22;10.10;;;4.00;;
54977;SDS011;40873;47.522;19.106;2022-12-11T16:43:52;11.50;;;5.13;;
54977;SDS011;40873;47.522;19.106;2022-12-11T16:46:20;8.88;;;4.45;;
54977;SDS011;40873;47.522;19.106;2022-12-11T16:48:50;11.32;;;4.43;;
54977;SDS011;40873;47.522;19.106;2022-12-11T16:51:17;10.02;;;4.68;;